createdAt,value
2017-08-21T00:00:25.277Z,1022.07
2017-08-21T00:01:35.460Z,1022.08
2017-08-21T00:02:44.664Z,1022.07
2017-08-21T00:03:54.203Z,1022.07
2017-08-21T00:05:04.480Z,1022.03
2017-08-21T00:06:13.688Z,1022.03
2017-08-21T00:07:23.222Z,1022.04
2017-08-21T00:08:33.071Z,1022.02
2017-08-21T00:09:42.272Z,1021.99
2017-08-21T00:10:51.952Z,1022.01
2017-08-21T00:12:01.161Z,1021.99
2017-08-21T00:13:10.688Z,1022.01
2017-08-21T00:14:20.563Z,1022.02
2017-08-21T00:15:29.769Z,1022.05
2017-08-21T00:16:39.020Z,1022.02
2017-08-21T00:17:48.230Z,1022.01
2017-08-21T00:18:57.760Z,1022.01
2017-08-21T00:20:07.611Z,1021.95
2017-08-21T00:21:17.472Z,1022
2017-08-21T00:22:26.711Z,1021.95
2017-08-21T00:23:36.242Z,1021.96
2017-08-21T00:24:46.093Z,1021.98
2017-08-21T00:25:55.623Z,1021.92
2017-08-21T00:27:05.151Z,1021.93
2017-08-21T00:28:14.779Z,1021.95
2017-08-21T00:29:24.639Z,1021.93
2017-08-21T00:30:34.168Z,1021.92
2017-08-21T00:31:43.381Z,1021.9
2017-08-21T00:32:52.907Z,1021.92
2017-08-21T00:34:02.418Z,1021.9
2017-08-21T00:35:12.279Z,1021.91
2017-08-21T00:36:22.135Z,1021.98
2017-08-21T00:37:31.362Z,1021.92
2017-08-21T00:38:40.244Z,1021.93
2017-08-21T00:39:49.455Z,1021.96
2017-08-21T00:40:59.630Z,1021.98
2017-08-21T00:42:09.500Z,1021.98
2017-08-21T00:43:19.674Z,1021.99
2017-08-21T00:44:29.526Z,1022
2017-08-21T00:45:38.830Z,1021.98
2017-08-21T00:46:48.038Z,1022.01
2017-08-21T00:47:57.887Z,1022.03
2017-08-21T00:49:07.412Z,1022
2017-08-21T00:50:16.322Z,1022.08
2017-08-21T00:51:26.176Z,1022.08
2017-08-21T00:52:35.064Z,1022.06
2017-08-21T00:53:44.591Z,1022.1
2017-08-21T00:54:53.799Z,1022.09
2017-08-21T00:56:03.004Z,1022.08
2017-08-21T00:57:12.961Z,1022.13
2017-08-21T00:58:21.880Z,1022.12
2017-08-21T00:59:31.082Z,1022.13
2017-08-21T01:00:40.288Z,1022.08
2017-08-21T01:01:49.815Z,1022.04
2017-08-21T01:02:59.498Z,1022.03
2017-08-21T01:04:08.704Z,1021.99
2017-08-21T01:05:17.910Z,1022.03
2017-08-21T01:06:27.114Z,1021.96
2017-08-21T01:07:36.325Z,1022.04
2017-08-21T01:08:45.954Z,1022
2017-08-21T01:09:55.165Z,1022.02
2017-08-21T01:11:05.354Z,1022.04
2017-08-21T01:12:15.212Z,1022.04
2017-08-21T01:13:24.743Z,1022.08
2017-08-21T01:14:34.321Z,1022.05
2017-08-21T01:15:43.203Z,1022.02
2017-08-21T01:16:52.738Z,1022.1
2017-08-21T01:18:01.939Z,1022.04
2017-08-21T01:19:11.517Z,1022.08
2017-08-21T01:20:21.156Z,1022.07
2017-08-21T01:21:30.046Z,1022
2017-08-21T01:22:39.573Z,1022.01
2017-08-21T01:23:48.778Z,1022.06
2017-08-21T01:24:57.980Z,1022.03
2017-08-21T01:26:07.659Z,1022.01
2017-08-21T01:27:16.863Z,1022
2017-08-21T01:28:26.422Z,1022.04
2017-08-21T01:29:35.628Z,1022.02
2017-08-21T01:30:45.160Z,1022
2017-08-21T01:31:54.690Z,1022
2017-08-21T01:33:03.905Z,1021.95
2017-08-21T01:34:13.764Z,1021.96
2017-08-21T01:35:22.667Z,1021.96
2017-08-21T01:36:31.872Z,1021.95
2017-08-21T01:37:41.229Z,1021.95
2017-08-21T01:38:50.758Z,1021.97
2017-08-21T01:39:59.966Z,1021.97
2017-08-21T01:41:09.175Z,1022
2017-08-21T01:42:18.704Z,1021.91
2017-08-21T01:43:28.057Z,1021.94
2017-08-21T01:44:37.594Z,1021.96
2017-08-21T01:45:47.125Z,1021.94
2017-08-21T01:46:56.329Z,1021.95
2017-08-21T01:48:05.862Z,1021.92
2017-08-21T01:49:15.872Z,1021.94
2017-08-21T01:50:25.073Z,1021.95
2017-08-21T01:51:34.602Z,1021.92
2017-08-21T01:52:43.809Z,1021.97
2017-08-21T01:53:53.339Z,1021.97
2017-08-21T01:55:03.166Z,1021.95
2017-08-21T01:56:12.691Z,1022.02
2017-08-21T01:57:21.582Z,1022.01
2017-08-21T01:58:31.117Z,1022.04
2017-08-21T01:59:40.319Z,1022.01
2017-08-21T02:00:49.897Z,1021.96
2017-08-21T02:01:59.103Z,1021.98
2017-08-21T02:03:08.305Z,1021.96
2017-08-21T02:04:17.513Z,1021.95
2017-08-21T02:05:26.396Z,1021.98
2017-08-21T02:06:35.752Z,1021.96
2017-08-21T02:07:44.634Z,1021.94
2017-08-21T02:08:54.483Z,1021.97
2017-08-21T02:10:04.332Z,1021.9
2017-08-21T02:11:14.188Z,1021.96
2017-08-21T02:12:23.441Z,1021.94
2017-08-21T02:13:32.969Z,1021.91
2017-08-21T02:14:42.207Z,1021.89
2017-08-21T02:15:52.060Z,1021.9
2017-08-21T02:17:00.941Z,1021.89
2017-08-21T02:18:10.248Z,1021.91
2017-08-21T02:19:19.138Z,1021.87
2017-08-21T02:20:28.992Z,1021.91
2017-08-21T02:21:38.199Z,1021.88
2017-08-21T02:22:47.412Z,1021.9
2017-08-21T02:23:56.664Z,1021.88
2017-08-21T02:25:06.520Z,1021.91
2017-08-21T02:26:16.055Z,1021.93
2017-08-21T02:27:24.946Z,1021.91
2017-08-21T02:28:34.152Z,1021.95
2017-08-21T02:29:43.682Z,1021.92
2017-08-21T02:30:53.222Z,1021.96
2017-08-21T02:32:03.082Z,1021.94
2017-08-21T02:33:12.612Z,1021.91
2017-08-21T02:34:21.820Z,1021.92
2017-08-21T02:35:31.509Z,1021.92
2017-08-21T02:36:40.713Z,1021.95
2017-08-21T02:37:50.242Z,1021.97
2017-08-21T02:38:59.457Z,1021.97
2017-08-21T02:40:08.665Z,1021.92
2017-08-21T02:41:18.846Z,1021.98
2017-08-21T02:42:29.028Z,1021.98
2017-08-21T02:43:37.916Z,1021.95
2017-08-21T02:44:47.121Z,1021.95
2017-08-21T02:45:56.013Z,1021.94
2017-08-21T02:47:06.024Z,1021.96
2017-08-21T02:48:15.256Z,1021.96
2017-08-21T02:49:24.786Z,1022.03
2017-08-21T02:50:33.992Z,1021.99
2017-08-21T02:51:43.197Z,1022.03
2017-08-21T02:52:53.056Z,1022.03
2017-08-21T02:54:02.586Z,1022.01
2017-08-21T02:55:12.120Z,1022.02
2017-08-21T02:56:21.326Z,1022.03
2017-08-21T02:57:30.536Z,1022.04
2017-08-21T02:58:39.798Z,1022.06
2017-08-21T02:59:49.329Z,1022.01
2017-08-21T03:00:58.532Z,1022.02
2017-08-21T03:02:08.064Z,1021.99
2017-08-21T03:03:17.596Z,1022.02
2017-08-21T03:04:26.530Z,1022
2017-08-21T03:05:36.381Z,1021.97
2017-08-21T03:06:45.584Z,1021.96
2017-08-21T03:07:55.111Z,1021.96
2017-08-21T03:09:03.998Z,1021.94
2017-08-21T03:10:14.001Z,1021.96
2017-08-21T03:11:22.890Z,1021.92
2017-08-21T03:12:32.739Z,1021.98
2017-08-21T03:13:41.620Z,1022.01
2017-08-21T03:14:51.143Z,1022.01
2017-08-21T03:16:00.495Z,1022
2017-08-21T03:17:10.030Z,1022.03
2017-08-21T03:18:19.246Z,1021.99
2017-08-21T03:19:28.450Z,1022.04
2017-08-21T03:20:37.656Z,1021.98
2017-08-21T03:21:47.012Z,1022.02
2017-08-21T03:22:56.539Z,1021.99
2017-08-21T03:24:05.745Z,1022
2017-08-21T03:25:15.279Z,1022.03
2017-08-21T03:26:24.165Z,1022.03
2017-08-21T03:27:33.054Z,1021.97
2017-08-21T03:28:42.580Z,1021.98
2017-08-21T03:29:52.111Z,1022.01
2017-08-21T03:31:01.640Z,1022.01
2017-08-21T03:32:10.849Z,1021.97
2017-08-21T03:33:20.211Z,1022.01
2017-08-21T03:34:30.067Z,1022.03
2017-08-21T03:35:39.918Z,1022.03
2017-08-21T03:36:49.118Z,1022.06
2017-08-21T03:37:58.645Z,1022.04
2017-08-21T03:39:08.643Z,1021.99
2017-08-21T03:40:17.845Z,1022.03
2017-08-21T03:41:27.395Z,1022.05
2017-08-21T03:42:36.273Z,1022.03
2017-08-21T03:43:45.802Z,1022.03
2017-08-21T03:44:55.806Z,1021.99
2017-08-21T03:46:05.334Z,1021.99
2017-08-21T03:47:15.184Z,1022
2017-08-21T03:48:24.067Z,1022.01
2017-08-21T03:49:33.599Z,1022
2017-08-21T03:50:43.230Z,1021.96
2017-08-21T03:51:52.112Z,1022.01
2017-08-21T03:53:00.990Z,1022.03
2017-08-21T03:54:10.520Z,1022
2017-08-21T03:55:19.722Z,1022.04
2017-08-21T03:56:28.605Z,1022.01
2017-08-21T03:57:38.139Z,1022.04
2017-08-21T03:58:47.344Z,1022.07
2017-08-21T03:59:56.229Z,1022.06
2017-08-21T04:01:05.440Z,1022.06
2017-08-21T04:02:14.658Z,1022.05
2017-08-21T04:03:23.860Z,1022.05
2017-08-21T04:04:33.715Z,1022.05
2017-08-21T04:05:43.241Z,1022.04
2017-08-21T04:06:53.125Z,1022.01
2017-08-21T04:08:02.478Z,1022.04
2017-08-21T04:09:12.015Z,1022.07
2017-08-21T04:10:21.547Z,1022.02
2017-08-21T04:11:31.075Z,1022.02
2017-08-21T04:12:40.924Z,1022.03
2017-08-21T04:13:50.133Z,1022.08
2017-08-21T04:15:00.306Z,1022.05
2017-08-21T04:16:09.840Z,1022.01
2017-08-21T04:17:19.041Z,1022.07
2017-08-21T04:18:28.567Z,1022.08
2017-08-21T04:19:37.967Z,1022.02
2017-08-21T04:20:47.813Z,1022.12
2017-08-21T04:21:57.337Z,1022.07
2017-08-21T04:23:06.865Z,1022.07
2017-08-21T04:24:16.392Z,1022.09
2017-08-21T04:25:25.646Z,1022.12
2017-08-21T04:26:34.867Z,1022.07
2017-08-21T04:27:44.402Z,1022.05
2017-08-21T04:28:53.605Z,1022.08
2017-08-21T04:30:03.481Z,1022.1
2017-08-21T04:31:12.614Z,1022.07
2017-08-21T04:32:22.137Z,1022.1
2017-08-21T04:33:31.658Z,1022.08
2017-08-21T04:34:40.541Z,1022.1
2017-08-21T04:35:50.069Z,1022.08
2017-08-21T04:36:59.274Z,1022.08
2017-08-21T04:38:08.481Z,1022.09
2017-08-21T04:39:18.013Z,1022.1
2017-08-21T04:40:27.217Z,1022.08
2017-08-21T04:41:36.419Z,1022.08
2017-08-21T04:42:45.693Z,1022.11
2017-08-21T04:43:54.895Z,1022.08
2017-08-21T04:45:04.421Z,1022.05
2017-08-21T04:46:13.623Z,1022.11
2017-08-21T04:47:22.824Z,1022.13
2017-08-21T04:48:32.774Z,1022.14
2017-08-21T04:49:42.301Z,1022.16
2017-08-21T04:50:51.186Z,1022.19
2017-08-21T04:52:00.388Z,1022.18
2017-08-21T04:53:09.586Z,1022.21
2017-08-21T04:54:19.116Z,1022.18
2017-08-21T04:55:28.323Z,1022.22
2017-08-21T04:56:37.532Z,1022.22
2017-08-21T04:57:47.058Z,1022.18
2017-08-21T04:58:56.257Z,1022.21
2017-08-21T05:00:05.610Z,1022.22
2017-08-21T05:01:15.139Z,1022.24
2017-08-21T05:02:24.993Z,1022.19
2017-08-21T05:03:34.519Z,1022.21
2017-08-21T05:04:43.727Z,1022.15
2017-08-21T05:05:52.940Z,1022.18
2017-08-21T05:07:02.467Z,1022.22
2017-08-21T05:08:12.322Z,1022.23
2017-08-21T05:09:21.524Z,1022.24
2017-08-21T05:10:31.047Z,1022.25
2017-08-21T05:11:40.721Z,1022.21
2017-08-21T05:12:50.249Z,1022.19
2017-08-21T05:13:59.461Z,1022.16
2017-08-21T05:15:08.673Z,1022.16
2017-08-21T05:16:18.527Z,1022.2
2017-08-21T05:17:28.202Z,1022.14
2017-08-21T05:18:37.433Z,1022.17
2017-08-21T05:19:46.638Z,1022.15
2017-08-21T05:20:56.487Z,1022.18
2017-08-21T05:22:06.032Z,1022.18
2017-08-21T05:23:14.968Z,1022.11
2017-08-21T05:24:24.493Z,1022.15
2017-08-21T05:25:33.707Z,1022.14
2017-08-21T05:26:42.591Z,1022.12
2017-08-21T05:27:51.479Z,1022.2
2017-08-21T05:29:00.693Z,1022.19
2017-08-21T05:30:10.554Z,1022.22
2017-08-21T05:31:20.407Z,1022.23
2017-08-21T05:32:29.290Z,1022.22
2017-08-21T05:33:39.143Z,1022.18
2017-08-21T05:34:48.674Z,1022.18
2017-08-21T05:35:58.203Z,1022.22
2017-08-21T05:37:07.414Z,1022.22
2017-08-21T05:38:16.615Z,1022.23
2017-08-21T05:39:26.473Z,1022.21
2017-08-21T05:40:36.117Z,1022.19
2017-08-21T05:41:45.666Z,1022.23
2017-08-21T05:42:55.517Z,1022.22
2017-08-21T05:44:04.742Z,1022.22
2017-08-21T05:45:14.602Z,1022.19
2017-08-21T05:46:24.148Z,1022.15
2017-08-21T05:47:33.037Z,1022.21
2017-08-21T05:48:42.248Z,1022.25
2017-08-21T05:49:51.455Z,1022.26
2017-08-21T05:51:00.982Z,1022.28
2017-08-21T05:52:10.511Z,1022.28
2017-08-21T05:53:20.042Z,1022.31
2017-08-21T05:54:29.720Z,1022.31
2017-08-21T05:55:38.927Z,1022.31
2017-08-21T05:56:48.141Z,1022.3
2017-08-21T05:57:57.040Z,1022.31
2017-08-21T05:59:06.896Z,1022.32
2017-08-21T06:00:16.795Z,1022.38
2017-08-21T06:01:26.002Z,1022.33
2017-08-21T06:02:35.209Z,1022.35
2017-08-21T06:03:44.738Z,1022.37
2017-08-21T06:04:54.270Z,1022.35
2017-08-21T06:06:03.577Z,1022.35
2017-08-21T06:07:13.156Z,1022.42
2017-08-21T06:08:22.713Z,1022.34
2017-08-21T06:09:31.919Z,1022.31
2017-08-21T06:10:41.452Z,1022.35
2017-08-21T06:11:50.713Z,1022.35
2017-08-21T06:12:59.918Z,1022.38
2017-08-21T06:14:10.093Z,1022.43
2017-08-21T06:15:19.622Z,1022.43
2017-08-21T06:16:29.804Z,1022.41
2017-08-21T06:17:38.837Z,1022.44
2017-08-21T06:18:48.041Z,1022.43
2017-08-21T06:19:57.243Z,1022.43
2017-08-21T06:21:07.421Z,1022.41
2017-08-21T06:22:16.950Z,1022.46
2017-08-21T06:23:26.531Z,1022.49
2017-08-21T06:24:35.738Z,1022.5
2017-08-21T06:25:45.587Z,1022.53
2017-08-21T06:26:55.120Z,1022.53
2017-08-21T06:28:04.327Z,1022.58
2017-08-21T06:29:14.045Z,1022.58
2017-08-21T06:30:23.900Z,1022.57
2017-08-21T06:31:33.428Z,1022.55
2017-08-21T06:32:42.634Z,1022.64
2017-08-21T06:33:52.495Z,1022.64
2017-08-21T06:35:02.271Z,1022.63
2017-08-21T06:36:12.133Z,1022.64
2017-08-21T06:37:21.341Z,1022.71
2017-08-21T06:38:30.542Z,1022.69
2017-08-21T06:39:40.394Z,1022.63
2017-08-21T06:40:49.586Z,1022.73
2017-08-21T06:41:58.800Z,1022.63
2017-08-21T06:43:08.346Z,1022.69
2017-08-21T06:44:17.551Z,1022.68
2017-08-21T06:45:26.777Z,1022.7
2017-08-21T06:46:35.810Z,1022.71
2017-08-21T06:47:45.019Z,1022.73
2017-08-21T06:48:54.271Z,1022.8
2017-08-21T06:50:04.123Z,1022.77
2017-08-21T06:51:13.328Z,1022.78
2017-08-21T06:52:22.632Z,1022.8
2017-08-21T06:53:31.512Z,1022.77
2017-08-21T06:54:41.040Z,1022.8
2017-08-21T06:55:50.571Z,1022.79
2017-08-21T06:57:00.748Z,1022.8
2017-08-21T06:58:10.307Z,1022.8
2017-08-21T06:59:19.513Z,1022.84
2017-08-21T07:00:29.038Z,1022.85
2017-08-21T07:01:37.923Z,1022.86
2017-08-21T07:02:47.455Z,1022.87
2017-08-21T07:03:57.459Z,1022.92
2017-08-21T07:05:06.987Z,1022.87
2017-08-21T07:06:16.519Z,1022.87
2017-08-21T07:07:25.406Z,1022.89
2017-08-21T07:08:34.614Z,1022.92
2017-08-21T07:09:43.893Z,1022.91
2017-08-21T07:10:53.425Z,1022.95
2017-08-21T07:12:03.290Z,1022.94
2017-08-21T07:13:12.829Z,1022.95
2017-08-21T07:14:22.035Z,1022.91
2017-08-21T07:15:31.544Z,1022.95
2017-08-21T07:16:41.737Z,1022.96
2017-08-21T07:17:51.294Z,1022.93
2017-08-21T07:19:00.829Z,1022.91
2017-08-21T07:20:10.682Z,1022.9
2017-08-21T07:21:20.839Z,1022.9
2017-08-21T07:22:30.373Z,1022.93
2017-08-21T07:23:39.902Z,1022.95
2017-08-21T07:24:49.113Z,1022.93
2017-08-21T07:25:58.005Z,1022.91
2017-08-21T07:27:07.390Z,1022.92
2017-08-21T07:28:16.596Z,1022.91
2017-08-21T07:29:25.809Z,1022.9
2017-08-21T07:30:35.339Z,1022.92
2017-08-21T07:31:44.866Z,1022.92
2017-08-21T07:32:54.721Z,1022.92
2017-08-21T07:34:04.251Z,1022.95
2017-08-21T07:35:13.461Z,1022.93
2017-08-21T07:36:22.740Z,1022.98
2017-08-21T07:37:31.632Z,1023.01
2017-08-21T07:38:40.514Z,1022.98
2017-08-21T07:39:49.717Z,1023.02
2017-08-21T07:40:58.931Z,1023.03
2017-08-21T07:42:09.105Z,1022.97
2017-08-21T07:43:18.030Z,1023.01
2017-08-21T07:44:27.642Z,1022.97
2017-08-21T07:45:36.854Z,1023.02
2017-08-21T07:46:46.712Z,1023.01
2017-08-21T07:47:56.574Z,1023.05
2017-08-21T07:49:06.105Z,1023.09
2017-08-21T07:50:16.005Z,1023.06
2017-08-21T07:51:25.860Z,1023.05
2017-08-21T07:52:35.070Z,1023.08
2017-08-21T07:53:44.601Z,1023.09
2017-08-21T07:54:54.135Z,1023.11
2017-08-21T07:56:03.499Z,1023.15
2017-08-21T07:57:13.031Z,1023.11
2017-08-21T07:58:22.562Z,1023.15
2017-08-21T07:59:32.096Z,1023.15
2017-08-21T08:00:41.659Z,1023.11
2017-08-21T08:01:50.542Z,1023.2
2017-08-21T08:02:59.750Z,1023.2
2017-08-21T08:04:09.278Z,1023.17
2017-08-21T08:05:18.491Z,1023.18
2017-08-21T08:06:27.703Z,1023.18
2017-08-21T08:07:37.301Z,1023.15
2017-08-21T08:08:46.517Z,1023.17
2017-08-21T08:09:56.048Z,1023.18
2017-08-21T08:11:05.578Z,1023.2
2017-08-21T08:12:15.432Z,1023.18
2017-08-21T08:13:24.693Z,1023.25
2017-08-21T08:14:33.909Z,1023.21
2017-08-21T08:15:43.757Z,1023.25
2017-08-21T08:16:52.643Z,1023.21
2017-08-21T08:18:01.846Z,1023.3
2017-08-21T08:19:11.207Z,1023.2
2017-08-21T08:20:20.421Z,1023.21
2017-08-21T08:21:29.957Z,1023.2
2017-08-21T08:22:39.520Z,1023.22
2017-08-21T08:23:48.407Z,1023.23
2017-08-21T08:24:57.994Z,1023.23
2017-08-21T08:26:07.522Z,1023.19
2017-08-21T08:27:16.410Z,1023.28
2017-08-21T08:28:26.585Z,1023.25
2017-08-21T08:29:35.807Z,1023.22
2017-08-21T08:30:45.489Z,1023.18
2017-08-21T08:31:55.671Z,1023.25
2017-08-21T08:33:05.533Z,1023.24
2017-08-21T08:34:15.712Z,1023.28
2017-08-21T08:35:24.935Z,1023.24
2017-08-21T08:36:34.264Z,1023.21
2017-08-21T08:37:43.475Z,1023.25
2017-08-21T08:38:52.687Z,1023.33
2017-08-21T08:40:02.218Z,1023.2
2017-08-21T08:41:11.439Z,1023.26
2017-08-21T08:42:21.080Z,1023.23
2017-08-21T08:43:31.260Z,1023.25
2017-08-21T08:44:40.142Z,1023.23
2017-08-21T08:45:49.671Z,1023.24
2017-08-21T08:46:59.203Z,1023.23
2017-08-21T08:48:09.064Z,1023.21
2017-08-21T08:49:18.920Z,1023.26
2017-08-21T08:50:28.793Z,1023.27
2017-08-21T08:51:38.984Z,1023.24
2017-08-21T08:52:48.519Z,1023.27
2017-08-21T08:53:57.558Z,1023.22
2017-08-21T08:55:07.423Z,1023.24
2017-08-21T08:56:16.952Z,1023.25
2017-08-21T08:57:26.806Z,1023.2
2017-08-21T08:58:36.667Z,1023.2
2017-08-21T08:59:45.922Z,1023.23
2017-08-21T09:00:55.780Z,1023.22
2017-08-21T09:02:05.325Z,1023.2
2017-08-21T09:03:15.509Z,1023.26
2017-08-21T09:04:25.043Z,1023.21
2017-08-21T09:05:35.051Z,1023.34
2017-08-21T09:06:44.586Z,1023.28
2017-08-21T09:07:54.117Z,1023.27
2017-08-21T09:09:03.346Z,1023.24
2017-08-21T09:10:13.201Z,1023.24
2017-08-21T09:11:23.037Z,1023.22
2017-08-21T09:12:33.218Z,1023.21
2017-08-21T09:13:43.398Z,1023.22
2017-08-21T09:14:52.931Z,1023.24
2017-08-21T09:16:02.465Z,1023.14
2017-08-21T09:17:11.999Z,1023.18
2017-08-21T09:18:21.532Z,1023.21
2017-08-21T09:19:31.067Z,1023.19
2017-08-21T09:20:40.923Z,1023.18
2017-08-21T09:21:50.783Z,1023.13
2017-08-21T09:22:59.694Z,1023.16
2017-08-21T09:24:09.564Z,1023.15
2017-08-21T09:25:19.757Z,1023.16
2017-08-21T09:26:28.646Z,1023.18
2017-08-21T09:27:37.882Z,1023.16
2017-08-21T09:28:47.524Z,1023.2
2017-08-21T09:29:57.384Z,1023.23
2017-08-21T09:31:07.252Z,1023.19
2017-08-21T09:32:16.463Z,1023.25
2017-08-21T09:33:25.994Z,1023.22
2017-08-21T09:34:35.830Z,1023.22
2017-08-21T09:35:46.021Z,1023.28
2017-08-21T09:36:55.562Z,1023.26
2017-08-21T09:38:05.097Z,1023.26
2017-08-21T09:39:14.956Z,1023.27
2017-08-21T09:40:24.656Z,1023.26
2017-08-21T09:41:33.868Z,1023.25
2017-08-21T09:42:43.076Z,1023.33
2017-08-21T09:43:52.608Z,1023.28
2017-08-21T09:45:02.148Z,1023.28
2017-08-21T09:46:11.092Z,1023.41
2017-08-21T09:47:20.623Z,1023.31
2017-08-21T09:48:30.484Z,1023.29
2017-08-21T09:49:40.018Z,1023.27
2017-08-21T09:50:49.231Z,1023.26
2017-08-21T09:51:58.490Z,1023.22
2017-08-21T09:53:07.699Z,1023.32
2017-08-21T09:54:16.908Z,1023.24
2017-08-21T09:55:25.793Z,1023.24
2017-08-21T09:56:35.009Z,1023.26
2017-08-21T09:57:44.046Z,1023.21
2017-08-21T09:58:53.904Z,1023.27
2017-08-21T10:00:02.787Z,1023.26
2017-08-21T10:01:11.674Z,1023.23
2017-08-21T10:02:21.210Z,1023.25
2017-08-21T10:03:30.820Z,1023.21
2017-08-21T10:04:40.998Z,1023.19
2017-08-21T10:05:50.227Z,1023.21
2017-08-21T10:06:59.438Z,1023.21
2017-08-21T10:08:08.972Z,1023.14
2017-08-21T10:09:18.658Z,1023.17
2017-08-21T10:10:27.866Z,1023.27
2017-08-21T10:11:37.078Z,1023.22
2017-08-21T10:12:46.933Z,1023.18
2017-08-21T10:13:56.470Z,1023.15
2017-08-21T10:15:05.610Z,1023.23
2017-08-21T10:16:15.195Z,1023.2
2017-08-21T10:17:24.079Z,1023.16
2017-08-21T10:18:33.294Z,1023.16
2017-08-21T10:19:42.509Z,1023.17
2017-08-21T10:20:52.145Z,1023.18
2017-08-21T10:22:01.359Z,1023.16
2017-08-21T10:23:11.547Z,1023.22
2017-08-21T10:24:21.080Z,1023.17
2017-08-21T10:25:30.615Z,1023.16
2017-08-21T10:26:41.044Z,1023.17
2017-08-21T10:27:51.224Z,1023.1
2017-08-21T10:29:00.756Z,1023.1
2017-08-21T10:30:10.610Z,1023.13
2017-08-21T10:31:19.820Z,1023.21
2017-08-21T10:32:29.781Z,1023.11
2017-08-21T10:33:39.322Z,1023.1
2017-08-21T10:34:48.853Z,1023.15
2017-08-21T10:35:58.062Z,1023.16
2017-08-21T10:37:07.603Z,1023.15
2017-08-21T10:38:16.594Z,1023.16
2017-08-21T10:39:25.801Z,1023.1
2017-08-21T10:40:35.016Z,1023.11
2017-08-21T10:41:44.246Z,1023.19
2017-08-21T10:42:53.461Z,1023.12
2017-08-21T10:44:02.674Z,1023.11
2017-08-21T10:45:12.207Z,1023.11
2017-08-21T10:46:22.064Z,1023.12
2017-08-21T10:47:31.280Z,1023.18
2017-08-21T10:48:41.462Z,1023.09
2017-08-21T10:49:50.994Z,1023.06
2017-08-21T10:51:00.541Z,1023.04
2017-08-21T10:52:09.751Z,1023.04
2017-08-21T10:53:19.608Z,1023.16
2017-08-21T10:54:29.153Z,1023.29
2017-08-21T10:55:39.315Z,1023.17
2017-08-21T10:56:48.849Z,1023.2
2017-08-21T10:57:58.063Z,1023.31
2017-08-21T10:59:07.917Z,1023.3
2017-08-21T11:00:17.123Z,1023.4
2017-08-21T11:01:26.816Z,1023.37
2017-08-21T11:02:36.674Z,1023.38
2017-08-21T11:03:47.184Z,1023.41
2017-08-21T11:04:56.736Z,1023.38
2017-08-21T11:06:05.947Z,1023.36
2017-08-21T11:07:15.480Z,1023.37
2017-08-21T11:08:25.019Z,1023.37
2017-08-21T11:09:35.200Z,1023.34
2017-08-21T11:10:44.732Z,1023.34
2017-08-21T11:11:53.944Z,1023.35
2017-08-21T11:13:04.177Z,1023.34
2017-08-21T11:14:14.360Z,1023.33
2017-08-21T11:15:23.571Z,1023.35
2017-08-21T11:16:33.108Z,1023.33
2017-08-21T11:17:42.323Z,1023.38
2017-08-21T11:18:51.627Z,1023.3
2017-08-21T11:20:00.841Z,1023.36
2017-08-21T11:21:10.385Z,1023.32
2017-08-21T11:22:19.272Z,1023.3
2017-08-21T11:23:28.809Z,1023.32
2017-08-21T11:24:38.336Z,1023.31
2017-08-21T11:25:47.873Z,1023.31
2017-08-21T11:26:56.763Z,1023.3
2017-08-21T11:28:06.617Z,1023.26
2017-08-21T11:29:16.475Z,1023.25
2017-08-21T11:30:25.893Z,1023.25
2017-08-21T11:31:35.157Z,1023.28
2017-08-21T11:32:44.367Z,1023.25
2017-08-21T11:33:53.580Z,1023.27
2017-08-21T11:35:03.123Z,1023.27
2017-08-21T11:36:13.131Z,1023.21
2017-08-21T11:37:22.664Z,1023.2
2017-08-21T11:38:31.873Z,1023.25
2017-08-21T11:39:40.765Z,1023.21
2017-08-21T11:40:50.299Z,1023.2
2017-08-21T11:42:00.474Z,1023.17
2017-08-21T11:43:10.013Z,1023.19
2017-08-21T11:44:19.553Z,1023.15
2017-08-21T11:45:28.764Z,1023.14
2017-08-21T11:46:38.301Z,1023.15
2017-08-21T11:47:47.238Z,1023.12
2017-08-21T11:48:56.449Z,1023.13
2017-08-21T11:50:06.306Z,1023.2
2017-08-21T11:51:15.847Z,1023.13
2017-08-21T11:52:25.726Z,1023.08
2017-08-21T11:53:35.634Z,1023.09
2017-08-21T11:54:45.499Z,1023.09
2017-08-21T11:55:54.730Z,1023.08
2017-08-21T11:57:04.608Z,1023.1
2017-08-21T11:58:14.481Z,1023.09
2017-08-21T11:59:23.694Z,1023.15
2017-08-21T12:00:33.254Z,1023.14
2017-08-21T12:01:42.464Z,1023.22
2017-08-21T12:02:52.017Z,1023.19
2017-08-21T12:04:01.225Z,1023.18
2017-08-21T12:05:11.395Z,1023.23
2017-08-21T12:06:20.928Z,1023.17
2017-08-21T12:07:30.461Z,1023.19
2017-08-21T12:08:39.999Z,1023.26
2017-08-21T12:09:49.856Z,1023.25
2017-08-21T12:10:59.907Z,1023.23
2017-08-21T12:12:10.090Z,1023.22
2017-08-21T12:13:20.281Z,1023.24
2017-08-21T12:14:29.829Z,1023.16
2017-08-21T12:15:39.699Z,1023.16
2017-08-21T12:16:49.059Z,1023.15
2017-08-21T12:17:58.268Z,1023.17
2017-08-21T12:19:08.448Z,1023.13
2017-08-21T12:20:18.358Z,1023.15
2017-08-21T12:21:27.894Z,1023.12
2017-08-21T12:22:37.760Z,1023.12
2017-08-21T12:23:47.299Z,1023.1
2017-08-21T12:24:56.887Z,1023.09
2017-08-21T12:26:06.743Z,1023.1
2017-08-21T12:27:16.281Z,1023.13
2017-08-21T12:28:25.738Z,1023.11
2017-08-21T12:29:35.269Z,1023.12
2017-08-21T12:30:44.801Z,1023.16
2017-08-21T12:31:54.333Z,1023.14
2017-08-21T12:33:03.873Z,1023.09
2017-08-21T12:34:13.081Z,1023.08
2017-08-21T12:35:22.938Z,1023.13
2017-08-21T12:36:32.148Z,1023.1
2017-08-21T12:37:41.686Z,1023.09
2017-08-21T12:38:51.563Z,1023.09
2017-08-21T12:40:00.452Z,1023.11
2017-08-21T12:41:09.697Z,1023.11
2017-08-21T12:42:19.240Z,1023.11
2017-08-21T12:43:29.105Z,1023.15
2017-08-21T12:44:38.640Z,1023.09
2017-08-21T12:45:47.677Z,1023.09
2017-08-21T12:46:57.251Z,1023.05
2017-08-21T12:48:07.127Z,1023.09
2017-08-21T12:49:17.028Z,1023.05
2017-08-21T12:50:25.921Z,1023.08
2017-08-21T12:51:35.753Z,1023.05
2017-08-21T12:52:45.617Z,1023.05
2017-08-21T12:53:54.510Z,1023.04
2017-08-21T12:55:04.046Z,1023.04
2017-08-21T12:56:13.256Z,1023.01
2017-08-21T12:57:22.464Z,1023.04
2017-08-21T12:58:32.323Z,1023.01
2017-08-21T12:59:41.538Z,1023.01
2017-08-21T13:00:51.084Z,1023.02
2017-08-21T13:02:00.308Z,1023.06
2017-08-21T13:03:09.625Z,1023.03
2017-08-21T13:04:19.803Z,1023.03
2017-08-21T13:05:28.716Z,1023.02
2017-08-21T13:06:38.267Z,1023.02
2017-08-21T13:07:47.802Z,1023.03
2017-08-21T13:08:57.064Z,1023.02
2017-08-21T13:10:06.920Z,1023.02
2017-08-21T13:11:16.467Z,1022.96
2017-08-21T13:12:26.329Z,1022.99
2017-08-21T13:13:35.549Z,1022.99
2017-08-21T13:14:45.255Z,1022.94
2017-08-21T13:15:55.125Z,1022.92
2017-08-21T13:17:04.658Z,1022.97
2017-08-21T13:18:14.521Z,1022.97
2017-08-21T13:19:23.418Z,1022.94
2017-08-21T13:20:33.682Z,1022.93
2017-08-21T13:21:42.895Z,1022.93
2017-08-21T13:22:52.108Z,1022.96
2017-08-21T13:24:01.646Z,1022.99
2017-08-21T13:25:11.509Z,1023
2017-08-21T13:26:21.644Z,1022.99
2017-08-21T13:27:31.831Z,1022.99
2017-08-21T13:28:41.043Z,1023.02
2017-08-21T13:29:49.932Z,1023.03
2017-08-21T13:30:58.826Z,1022.98
2017-08-21T13:32:08.785Z,1022.97
2017-08-21T13:33:18.023Z,1023.1
2017-08-21T13:34:27.235Z,1023.07
2017-08-21T13:35:36.768Z,1023.09
2017-08-21T13:36:46.302Z,1023.08
2017-08-21T13:37:56.090Z,1023.06
2017-08-21T13:39:05.961Z,1023.05
2017-08-21T13:40:16.159Z,1023.09
2017-08-21T13:41:25.692Z,1023.07
2017-08-21T13:42:34.906Z,1023.08
2017-08-21T13:43:44.774Z,1023.07
2017-08-21T13:44:53.980Z,1023.04
2017-08-21T13:46:03.229Z,1023.01
2017-08-21T13:47:13.523Z,1023.02
2017-08-21T13:48:23.385Z,1023.01
2017-08-21T13:49:32.378Z,1023.11
2017-08-21T13:50:42.235Z,1022.92
2017-08-21T13:51:51.766Z,1022.89
2017-08-21T13:53:00.978Z,1022.89
2017-08-21T13:54:11.165Z,1022.9
2017-08-21T13:55:21.120Z,1022.87
2017-08-21T13:56:30.660Z,1022.88
2017-08-21T13:57:39.553Z,1022.83
2017-08-21T13:58:49.095Z,1022.88
2017-08-21T13:59:58.633Z,1022.87
2017-08-21T14:01:08.978Z,1022.9
2017-08-21T14:02:18.520Z,1022.9
2017-08-21T14:03:28.055Z,1022.89